createdAt,value
2022-11-12T00:00:54.461Z,10.07
2022-11-12T00:02:17.840Z,9.40
2022-11-12T00:03:41.229Z,6.43
2022-11-12T00:05:03.832Z,11.75
2022-11-12T00:06:27.197Z,10.15
2022-11-12T00:07:50.532Z,9.90
2022-11-12T00:09:13.903Z,7.25
2022-11-12T00:10:36.446Z,15.23
2022-11-12T00:11:59.821Z,8.23
2022-11-12T00:13:22.159Z,13.30
2022-11-12T00:14:46.864Z,7.47
2022-11-12T00:16:10.371Z,7.30
2022-11-12T00:17:32.727Z,7.78
2022-11-12T00:18:56.103Z,8.57
2022-11-12T00:20:18.525Z,11.18
2022-11-12T00:21:41.884Z,5.35
2022-11-12T00:23:04.682Z,4.35
2022-11-12T00:24:28.014Z,5.15
2022-11-12T00:25:59.153Z,7.53
2022-11-12T00:27:22.523Z,7.13
2022-11-12T00:28:45.873Z,6.03
2022-11-12T00:30:10.456Z,7.97
2022-11-12T00:31:34.501Z,7.15
2022-11-12T00:32:57.050Z,5.03
2022-11-12T00:34:21.317Z,6.85
2022-11-12T00:35:43.687Z,8.52
2022-11-12T00:37:07.139Z,4.78
2022-11-12T00:38:32.500Z,6.60
2022-11-12T00:39:55.499Z,9.93
2022-11-12T00:41:18.931Z,7.53
2022-11-12T00:42:41.284Z,10.68
2022-11-12T00:44:04.666Z,5.07
2022-11-12T00:45:29.379Z,5.78
2022-11-12T00:46:52.775Z,8.35
2022-11-12T00:48:15.160Z,5.78
2022-11-12T00:49:38.548Z,6.32
2022-11-12T00:51:03.185Z,7.00
2022-11-12T00:52:25.545Z,6.85
2022-11-12T00:53:50.066Z,11.57
2022-11-12T00:55:13.437Z,3.95
2022-11-12T00:56:36.865Z,7.30
2022-11-12T00:57:59.390Z,7.97
2022-11-12T00:59:22.896Z,6.30
2022-11-12T01:00:47.632Z,5.88
2022-11-12T01:02:10.994Z,7.53
2022-11-12T01:03:33.446Z,10.13
2022-11-12T01:04:56.893Z,7.18
2022-11-12T01:06:21.960Z,6.40
2022-11-12T01:07:45.357Z,7.22
2022-11-12T01:09:08.767Z,7.35
2022-11-12T01:10:31.228Z,6.00
2022-11-12T01:11:54.571Z,4.63
2022-11-12T01:13:16.925Z,5.50
2022-11-12T01:14:40.592Z,6.45
2022-11-12T01:16:08.535Z,6.60
2022-11-12T01:17:32.219Z,7.38
2022-11-12T01:18:56.811Z,6.15
2022-11-12T01:20:19.360Z,6.30
2022-11-12T01:21:44.654Z,8.23
2022-11-12T01:23:08.212Z,5.68
2022-11-12T01:24:30.569Z,11.88
2022-11-12T01:25:53.924Z,7.05
2022-11-12T01:27:17.342Z,7.57
2022-11-12T01:28:40.386Z,3.97
2022-11-12T01:30:03.829Z,4.95
2022-11-12T01:31:29.014Z,4.75
2022-11-12T01:32:52.427Z,4.72
2022-11-12T01:34:14.802Z,5.05
2022-11-12T01:35:38.155Z,5.20
2022-11-12T01:37:00.664Z,5.55
2022-11-12T01:38:24.456Z,4.53
2022-11-12T01:39:48.020Z,4.80
2022-11-12T01:41:14.935Z,5.80
2022-11-12T01:42:40.439Z,5.20
2022-11-12T01:44:15.118Z,4.75
2022-11-12T01:45:39.305Z,5.13
2022-11-12T01:47:06.419Z,6.38
2022-11-12T01:48:33.215Z,4.90
2022-11-12T01:49:58.270Z,3.90
2022-11-12T01:51:22.872Z,6.13
2022-11-12T01:52:48.246Z,4.15
2022-11-12T01:54:13.633Z,6.07
2022-11-12T01:55:38.439Z,6.55
2022-11-12T01:57:01.063Z,7.70
2022-11-12T01:58:28.538Z,10.73
2022-11-12T01:59:54.614Z,7.00
2022-11-12T02:01:18.039Z,3.08
2022-11-12T02:02:47.565Z,6.38
2022-11-12T02:04:09.935Z,3.72
2022-11-12T02:05:33.665Z,5.00
2022-11-12T02:06:58.308Z,4.88
2022-11-12T02:08:20.750Z,5.28
2022-11-12T02:09:44.125Z,4.22
2022-11-12T02:11:14.105Z,10.25
2022-11-12T02:12:55.417Z,7.25
2022-11-12T02:14:18.774Z,5.43
2022-11-12T02:15:42.048Z,4.55
2022-11-12T02:17:05.419Z,4.60
2022-11-12T02:18:29.277Z,6.15
2022-11-12T02:19:53.827Z,4.15
2022-11-12T02:21:21.677Z,4.18
2022-11-12T02:22:45.114Z,5.13
2022-11-12T02:24:32.039Z,5.32
2022-11-12T02:25:55.409Z,4.88
2022-11-12T02:27:18.815Z,2.97
2022-11-12T02:28:42.393Z,8.23
2022-11-12T02:30:05.693Z,5.00
2022-11-12T02:31:29.227Z,4.05
2022-11-12T02:32:51.580Z,5.82
2022-11-12T02:34:14.958Z,4.60
2022-11-12T02:35:37.366Z,3.28
2022-11-12T02:37:02.058Z,4.32
2022-11-12T02:38:24.625Z,4.85
2022-11-12T02:39:48.130Z,4.95
2022-11-12T02:41:10.555Z,4.07
2022-11-12T02:42:33.920Z,3.45
2022-11-12T02:43:56.368Z,4.18
2022-11-12T02:45:20.962Z,4.20
2022-11-12T02:46:43.351Z,4.18
2022-11-12T02:48:07.130Z,3.95
2022-11-12T02:49:29.501Z,7.75
2022-11-12T02:50:52.852Z,4.95
2022-11-12T02:52:17.559Z,4.53
2022-11-12T02:53:40.886Z,5.10
2022-11-12T02:55:04.627Z,4.88
2022-11-12T02:56:28.030Z,5.10
2022-11-12T02:57:51.447Z,5.82
2022-11-12T02:59:14.835Z,2.92
2022-11-12T03:00:37.192Z,4.18
2022-11-12T03:02:00.533Z,5.78
2022-11-12T03:03:22.934Z,4.53
2022-11-12T03:04:49.398Z,5.43
2022-11-12T03:06:12.132Z,5.07
2022-11-12T03:07:36.906Z,5.95
2022-11-12T03:09:00.251Z,2.90
2022-11-12T03:10:22.616Z,8.50
2022-11-12T03:11:45.947Z,7.13
2022-11-12T03:13:08.298Z,5.03
2022-11-12T03:14:31.655Z,4.50
2022-11-12T03:15:59.746Z,6.13
2022-11-12T03:17:23.158Z,2.72
2022-11-12T03:18:46.523Z,3.67
2022-11-12T03:20:09.810Z,3.30
2022-11-12T03:21:33.143Z,9.18
2022-11-12T03:22:58.769Z,5.32
2022-11-12T03:24:22.112Z,4.22
2022-11-12T03:25:44.787Z,2.83
2022-11-12T03:27:08.143Z,5.60
2022-11-12T03:28:31.659Z,4.03
2022-11-12T03:29:54.043Z,4.03
2022-11-12T03:31:17.410Z,5.85
2022-11-12T03:32:39.787Z,2.88
2022-11-12T03:34:03.202Z,3.08
2022-11-12T03:35:26.752Z,7.07
2022-11-12T03:36:50.120Z,4.20
2022-11-12T03:38:14.821Z,5.38
2022-11-12T03:39:38.338Z,4.25
2022-11-12T03:41:01.913Z,4.13
2022-11-12T03:42:24.298Z,4.88
2022-11-12T03:43:47.735Z,5.60
2022-11-12T03:45:10.392Z,3.53
2022-11-12T03:46:33.739Z,5.32
2022-11-12T03:47:57.432Z,4.22
2022-11-12T03:49:20.917Z,5.80
2022-11-12T03:50:44.275Z,3.70
2022-11-12T03:52:07.616Z,4.28
2022-11-12T03:53:32.377Z,6.15
2022-11-12T03:54:54.761Z,4.85
2022-11-12T03:56:18.160Z,4.32
2022-11-12T03:57:40.568Z,5.13
2022-11-12T03:59:04.229Z,3.65
2022-11-12T04:00:27.970Z,5.35
2022-11-12T04:01:51.321Z,7.30
2022-11-12T04:03:14.711Z,2.95
2022-11-12T04:04:52.059Z,6.97
2022-11-12T04:06:32.961Z,5.63
2022-11-12T04:08:17.281Z,3.70
2022-11-12T04:09:41.997Z,3.63
2022-11-12T04:11:07.092Z,5.72
2022-11-12T04:12:47.899Z,4.15
2022-11-12T04:14:11.282Z,6.88
2022-11-12T04:15:33.787Z,5.05
2022-11-12T04:17:14.769Z,8.23
2022-11-12T04:18:55.898Z,3.15
2022-11-12T04:20:37.042Z,6.32
2022-11-12T04:22:03.083Z,5.78
2022-11-12T04:23:25.463Z,6.18
2022-11-12T04:25:07.986Z,3.67
2022-11-12T04:26:31.338Z,6.00
2022-11-12T04:27:53.709Z,3.90
2022-11-12T04:29:37.733Z,8.98
2022-11-12T04:31:01.129Z,4.25
2022-11-12T04:32:25.328Z,6.07
2022-11-12T04:33:48.660Z,8.95
2022-11-12T04:35:11.061Z,3.75
2022-11-12T04:36:34.437Z,6.60
2022-11-12T04:37:57.996Z,5.00
2022-11-12T04:39:20.325Z,5.50
2022-11-12T04:41:02.571Z,6.18
2022-11-12T04:42:43.500Z,4.90
2022-11-12T04:44:24.906Z,3.03
2022-11-12T04:45:49.850Z,5.20
2022-11-12T04:47:12.228Z,5.93
2022-11-12T04:48:35.622Z,5.68
2022-11-12T04:49:58.130Z,6.13
2022-11-12T04:51:39.077Z,12.38
2022-11-12T04:53:02.484Z,6.95
2022-11-12T04:54:24.812Z,4.43
2022-11-12T04:55:51.232Z,3.55
2022-11-12T04:57:13.600Z,10.98
2022-11-12T04:58:36.947Z,6.13
2022-11-12T05:00:00.292Z,7.57
2022-11-12T05:01:22.696Z,5.85
2022-11-12T05:02:50.173Z,7.82
2022-11-12T05:04:38.276Z,5.65
2022-11-12T05:06:25.618Z,4.35
2022-11-12T05:07:49.041Z,8.95
2022-11-12T05:09:11.452Z,4.40
2022-11-12T05:10:34.953Z,4.88
2022-11-12T05:11:58.727Z,6.30
2022-11-12T05:13:22.091Z,6.43
2022-11-12T05:14:45.440Z,4.78
2022-11-12T05:16:08.001Z,6.22
2022-11-12T05:17:31.425Z,6.53
2022-11-12T05:18:53.847Z,10.38
2022-11-12T05:20:17.779Z,27.75
2022-11-12T05:21:58.720Z,11.45
2022-11-12T05:23:22.056Z,9.52
2022-11-12T05:24:46.138Z,13.32
2022-11-12T05:26:08.504Z,7.28
2022-11-12T05:27:33.213Z,6.07
2022-11-12T05:28:55.604Z,6.90
2022-11-12T05:30:19.090Z,6.22
2022-11-12T05:31:41.497Z,5.97
2022-11-12T05:33:05.007Z,6.25
2022-11-12T05:34:27.409Z,5.07
2022-11-12T05:35:50.747Z,5.35
2022-11-12T05:37:16.752Z,5.28
2022-11-12T05:38:39.188Z,7.63
2022-11-12T05:40:02.560Z,5.72
2022-11-12T05:41:24.963Z,6.22
2022-11-12T05:42:49.696Z,6.97
2022-11-12T05:44:12.116Z,6.32
2022-11-12T05:45:35.471Z,9.00
2022-11-12T05:46:58.829Z,11.65
2022-11-12T05:48:24.374Z,4.07
2022-11-12T05:49:48.113Z,4.30
2022-11-12T05:51:13.412Z,5.60
2022-11-12T05:52:37.609Z,6.53
2022-11-12T05:54:00.524Z,9.02
2022-11-12T05:55:23.993Z,5.85
2022-11-12T05:56:47.835Z,6.80
2022-11-12T05:58:11.818Z,13.27
2022-11-12T05:59:35.166Z,4.28
2022-11-12T06:00:57.578Z,4.50
2022-11-12T06:02:20.975Z,6.20
2022-11-12T06:03:44.377Z,7.25
2022-11-12T06:05:08.509Z,7.05
2022-11-12T06:06:32.095Z,6.03
2022-11-12T06:07:54.422Z,10.57
2022-11-12T06:09:18.243Z,4.50
2022-11-12T06:10:40.683Z,7.47
2022-11-12T06:12:06.746Z,6.22
2022-11-12T06:13:31.697Z,6.18
2022-11-12T06:14:55.060Z,4.88
2022-11-12T06:16:17.406Z,8.57
2022-11-12T06:17:40.739Z,4.13
2022-11-12T06:19:04.863Z,6.95
2022-11-12T06:20:27.325Z,7.38
2022-11-12T06:21:50.688Z,6.25
2022-11-12T06:23:13.156Z,9.32
2022-11-12T06:24:36.606Z,6.68
2022-11-12T06:25:59.011Z,6.32
2022-11-12T06:27:23.933Z,6.15
2022-11-12T06:28:49.498Z,7.10
2022-11-12T06:30:13.564Z,12.00
2022-11-12T06:31:36.904Z,6.00
2022-11-12T06:33:00.235Z,8.40
2022-11-12T06:34:23.601Z,11.80
2022-11-12T06:35:45.970Z,7.22
2022-11-12T06:37:09.367Z,16.02
2022-11-12T06:38:32.366Z,7.85
2022-11-12T06:39:55.751Z,10.25
2022-11-12T06:41:19.251Z,6.68
2022-11-12T06:42:41.608Z,5.75
2022-11-12T06:44:07.093Z,8.15
2022-11-12T06:45:30.292Z,8.60
2022-11-12T06:46:53.711Z,6.35
2022-11-12T06:48:16.057Z,7.72
2022-11-12T06:49:39.434Z,7.53
2022-11-12T06:51:11.552Z,8.57
2022-11-12T06:52:33.903Z,8.25
2022-11-12T06:53:57.944Z,9.10
2022-11-12T06:55:20.383Z,6.20
2022-11-12T06:56:43.766Z,6.45
2022-11-12T06:58:06.123Z,7.22
2022-11-12T06:59:30.828Z,11.30
2022-11-12T07:00:53.182Z,8.50
2022-11-12T07:02:16.545Z,8.80
2022-11-12T07:03:40.310Z,7.10
2022-11-12T07:05:02.655Z,10.98
2022-11-12T07:06:25.999Z,9.18
2022-11-12T07:07:48.823Z,5.80
2022-11-12T07:09:12.857Z,9.02
2022-11-12T07:10:35.236Z,6.30
2022-11-12T07:11:58.585Z,7.75
2022-11-12T07:13:20.984Z,6.78
2022-11-12T07:14:46.678Z,8.90
2022-11-12T07:16:10.790Z,7.13
2022-11-12T07:17:33.174Z,5.20
2022-11-12T07:18:56.527Z,10.85
2022-11-12T07:20:18.957Z,8.30
2022-11-12T07:21:42.288Z,5.13
2022-11-12T07:23:04.677Z,4.60
2022-11-12T07:24:28.065Z,7.10
2022-11-12T07:25:57.796Z,8.32
2022-11-12T07:27:21.162Z,6.40
2022-11-12T07:28:44.806Z,9.82
2022-11-12T07:30:10.952Z,7.65
2022-11-12T07:31:33.327Z,6.47
2022-11-12T07:32:59.475Z,4.35
2022-11-12T07:34:21.828Z,7.57
2022-11-12T07:35:45.258Z,7.30
2022-11-12T07:37:08.643Z,8.05
2022-11-12T07:38:34.110Z,11.30
2022-11-12T07:39:57.486Z,7.40
2022-11-12T07:41:23.010Z,8.90
2022-11-12T07:42:46.371Z,5.00
2022-11-12T07:44:09.775Z,6.22
2022-11-12T07:45:34.472Z,7.07
2022-11-12T07:46:57.844Z,8.30
2022-11-12T07:48:21.203Z,7.45
2022-11-12T07:49:44.556Z,5.43
2022-11-12T07:51:09.565Z,6.97
2022-11-12T07:52:34.977Z,8.55
2022-11-12T07:53:59.947Z,6.13
2022-11-12T07:55:23.445Z,11.60
2022-11-12T07:56:46.864Z,6.70
2022-11-12T07:58:10.219Z,4.30
2022-11-12T07:59:33.560Z,7.25
2022-11-12T08:00:58.348Z,5.55
2022-11-12T08:02:21.691Z,8.93
2022-11-12T08:03:44.045Z,6.07
2022-11-12T08:05:14.466Z,5.55
2022-11-12T08:06:41.169Z,8.63
2022-11-12T08:08:04.841Z,7.45
2022-11-12T08:09:29.498Z,5.03
2022-11-12T08:10:56.499Z,7.20
2022-11-12T08:12:19.850Z,6.43
2022-11-12T08:13:43.229Z,6.10
2022-11-12T08:15:07.326Z,6.30
2022-11-12T08:16:32.605Z,8.55
2022-11-12T08:17:55.940Z,8.07
2022-11-12T08:19:19.299Z,6.88
2022-11-12T08:20:42.882Z,10.98
2022-11-12T08:22:05.239Z,10.60
2022-11-12T08:23:28.623Z,10.13
2022-11-12T08:24:51.939Z,12.27
2022-11-12T08:26:16.138Z,7.05
2022-11-12T08:27:39.464Z,8.32
2022-11-12T08:29:07.924Z,9.30
2022-11-12T08:30:32.099Z,11.38
2022-11-12T08:31:56.799Z,7.30
2022-11-12T08:33:20.187Z,6.88
2022-11-12T08:34:43.737Z,13.05
2022-11-12T08:36:08.757Z,8.88
2022-11-12T08:37:32.114Z,10.43
2022-11-12T08:38:55.438Z,12.32
2022-11-12T08:40:19.076Z,5.60
2022-11-12T08:41:42.450Z,10.88
2022-11-12T08:43:07.552Z,10.43
2022-11-12T08:44:30.899Z,10.65
2022-11-12T08:45:54.282Z,12.88
2022-11-12T08:47:18.986Z,12.48
2022-11-12T08:48:42.393Z,7.32
2022-11-12T08:50:06.202Z,11.75
2022-11-12T08:51:29.588Z,14.77
2022-11-12T08:52:52.988Z,8.65
2022-11-12T08:54:16.362Z,8.85
2022-11-12T08:55:39.781Z,14.63
2022-11-12T08:57:03.115Z,9.57
2022-11-12T08:58:26.624Z,9.73
2022-11-12T08:59:50.510Z,9.60
2022-11-12T09:01:14.220Z,20.92
2022-11-12T09:02:38.959Z,5.88
2022-11-12T09:04:02.297Z,7.78
2022-11-12T09:05:24.670Z,10.55
2022-11-12T09:06:53.583Z,7.78
2022-11-12T09:08:19.397Z,11.30
2022-11-12T09:09:42.853Z,11.25
2022-11-12T09:11:07.804Z,25.98
2022-11-12T09:12:30.193Z,121.07
2022-11-12T09:13:54.908Z,12.27
2022-11-12T09:17:00.743Z,9.90
2022-11-12T09:18:25.806Z,6.72
2022-11-12T09:19:49.464Z,11.18
2022-11-12T09:21:13.972Z,10.95
2022-11-12T09:22:36.647Z,10.48
2022-11-12T09:23:59.975Z,10.00
2022-11-12T09:25:22.363Z,8.13
2022-11-12T09:26:45.706Z,13.35
2022-11-12T09:28:09.643Z,10.38
2022-11-12T09:29:33.001Z,14.35
2022-11-12T09:30:57.089Z,13.27
2022-11-12T09:32:20.438Z,10.15
2022-11-12T09:33:45.150Z,12.32
2022-11-12T09:35:09.212Z,11.95
2022-11-12T09:36:37.145Z,23.17
2022-11-12T09:38:01.985Z,15.80
2022-11-12T09:39:25.337Z,9.00
2022-11-12T09:41:28.379Z,17.55
2022-11-12T09:42:54.004Z,14.07
2022-11-12T09:44:19.669Z,15.43
2022-11-12T09:45:50.362Z,18.13
2022-11-12T09:47:27.756Z,14.60
2022-11-12T09:48:57.050Z,13.23
2022-11-12T09:50:22.876Z,11.65
2022-11-12T09:51:51.525Z,16.80
2022-11-12T09:53:18.547Z,19.00
2022-11-12T09:54:42.381Z,18.23
2022-11-12T09:56:08.752Z,14.32
2022-11-12T09:57:33.494Z,13.60
2022-11-12T09:58:56.858Z,17.10
2022-11-12T10:00:21.767Z,19.42
2022-11-12T10:01:53.607Z,19.73
2022-11-12T10:03:23.683Z,16.60
2022-11-12T10:05:06.087Z,16.00
2022-11-12T10:06:34.754Z,19.95
2022-11-12T10:08:07.105Z,16.48
2022-11-12T10:09:36.193Z,15.95
2022-11-12T10:11:02.756Z,19.02
2022-11-12T10:12:35.204Z,15.32
2022-11-12T10:14:05.554Z,19.38
2022-11-12T10:16:10.220Z,16.77
2022-11-12T10:17:40.912Z,13.98
2022-11-12T10:19:31.372Z,19.00
2022-11-12T10:20:59.281Z,19.25
2022-11-12T10:22:32.813Z,17.75
2022-11-12T10:23:56.279Z,17.10
2022-11-12T10:25:20.774Z,14.30
2022-11-12T10:26:44.152Z,15.55
2022-11-12T10:28:18.100Z,15.68
2022-11-12T10:29:47.714Z,15.10
2022-11-12T10:31:14.402Z,16.70
2022-11-12T10:32:38.766Z,14.07
2022-11-12T10:34:15.948Z,12.93
2022-11-12T10:35:39.296Z,11.80
2022-11-12T10:37:07.049Z,17.60
2022-11-12T10:38:30.591Z,13.38
2022-11-12T10:39:54.187Z,15.45
2022-11-12T10:41:23.550Z,12.23
2022-11-12T10:43:05.455Z,16.48
2022-11-12T10:44:28.854Z,15.45
2022-11-12T10:45:52.561Z,12.20
2022-11-12T10:47:24.678Z,14.15
2022-11-12T10:48:55.260Z,14.52
2022-11-12T10:50:22.400Z,14.88
2022-11-12T10:51:57.264Z,17.85
2022-11-12T10:53:34.445Z,16.90
2022-11-12T10:55:06.607Z,15.55
2022-11-12T10:56:31.614Z,16.15
2022-11-12T10:58:14.535Z,13.80
2022-11-12T10:59:37.907Z,15.75
2022-11-12T11:01:03.283Z,13.25
2022-11-12T11:02:26.773Z,16.40
2022-11-12T11:03:56.548Z,15.85
2022-11-12T11:05:30.023Z,20.92
2022-11-12T11:07:04.941Z,19.30
2022-11-12T11:08:41.749Z,17.63
2022-11-12T11:10:05.607Z,16.52
2022-11-12T11:11:30.004Z,15.23
2022-11-12T11:13:10.914Z,13.45
2022-11-12T11:14:35.943Z,16.83
2022-11-12T11:16:00.942Z,12.75
2022-11-12T11:17:24.287Z,11.70
2022-11-12T11:18:50.239Z,13.57
2022-11-12T11:20:20.182Z,12.38
2022-11-12T11:21:59.961Z,11.90
2022-11-12T11:23:25.703Z,14.85
2022-11-12T11:24:58.625Z,9.40
2022-11-12T11:26:30.780Z,13.73
2022-11-12T11:28:02.890Z,11.88
2022-11-12T11:29:59.878Z,14.55
2022-11-12T11:31:34.305Z,16.60
2022-11-12T11:33:25.257Z,11.23
2022-11-12T11:34:54.481Z,9.43
2022-11-12T11:36:23.044Z,11.60
2022-11-12T11:37:58.388Z,13.55
2022-11-12T11:39:29.393Z,10.95
2022-11-12T11:41:00.751Z,11.00
2022-11-12T11:42:37.707Z,13.70
2022-11-12T11:44:13.635Z,10.13
2022-11-12T11:45:54.321Z,12.38
2022-11-12T11:47:38.615Z,15.68
2022-11-12T11:49:48.176Z,16.95
2022-11-12T11:51:26.011Z,15.18
2022-11-12T11:52:56.271Z,11.55
2022-11-12T11:54:35.964Z,11.82
2022-11-12T11:56:05.227Z,15.18
2022-11-12T11:57:30.282Z,12.82
2022-11-12T11:59:07.145Z,12.10
2022-11-12T12:00:36.582Z,11.65
2022-11-12T12:02:13.809Z,16.08
2022-11-12T12:03:49.300Z,16.08
2022-11-12T12:05:26.785Z,20.45
2022-11-12T12:06:58.941Z,11.98
2022-11-12T12:08:31.482Z,11.05
2022-11-12T12:10:07.858Z,15.70
2022-11-12T12:11:37.620Z,11.82
2022-11-12T12:13:07.529Z,15.30
2022-11-12T12:14:44.529Z,13.70
2022-11-12T12:16:20.393Z,18.05
2022-11-12T12:17:50.046Z,12.15
2022-11-12T12:19:26.780Z,13.23
2022-11-12T12:20:54.238Z,13.65
2022-11-12T12:22:20.608Z,16.30
2022-11-12T12:23:49.498Z,11.38
2022-11-12T12:25:15.573Z,12.18
2022-11-12T12:26:43.421Z,10.15
2022-11-12T12:28:11.723Z,14.18
2022-11-12T12:29:38.542Z,10.10
2022-11-12T12:31:06.494Z,15.70
2022-11-12T12:32:32.392Z,12.32
2022-11-12T12:33:58.280Z,11.43
2022-11-12T12:35:26.417Z,14.63
2022-11-12T12:36:53.309Z,12.18
2022-11-12T12:38:21.600Z,15.82
2022-11-12T12:39:54.677Z,13.50
2022-11-12T12:41:27.662Z,10.95
2022-11-12T12:42:56.363Z,12.82
2022-11-12T12:44:19.713Z,13.50
2022-11-12T12:45:44.583Z,9.98
2022-11-12T12:47:12.097Z,10.05
2022-11-12T12:48:38.548Z,13.23
2022-11-12T12:50:02.581Z,13.38
2022-11-12T12:51:26.635Z,15.57
2022-11-12T12:53:04.335Z,13.18
2022-11-12T12:54:55.943Z,11.85
2022-11-12T12:56:43.897Z,13.57
2022-11-12T12:58:22.045Z,13.57
2022-11-12T12:59:45.380Z,9.63
2022-11-12T13:01:14.915Z,11.57
2022-11-12T13:02:38.673Z,12.35
2022-11-12T13:04:03.380Z,10.05
2022-11-12T13:05:29.528Z,15.27
2022-11-12T13:06:54.478Z,8.88
2022-11-12T13:08:23.189Z,11.63
2022-11-12T13:09:46.576Z,10.52
2022-11-12T13:11:10.266Z,9.77
2022-11-12T13:13:05.497Z,13.68
2022-11-12T13:15:10.881Z,14.23
2022-11-12T13:16:59.438Z,14.07
2022-11-12T13:19:00.765Z,14.45
2022-11-12T13:20:34.576Z,12.80
2022-11-12T13:22:31.200Z,10.65
2022-11-12T13:24:11.434Z,9.00
2022-11-12T13:25:33.799Z,13.20
2022-11-12T13:26:58.370Z,14.85
2022-11-12T13:28:21.711Z,9.05
2022-11-12T13:29:47.160Z,10.13
2022-11-12T13:33:00.776Z,12.95
2022-11-12T13:34:28.198Z,10.93
2022-11-12T13:35:51.558Z,9.63
2022-11-12T13:37:19.911Z,15.65
2022-11-12T13:38:43.721Z,13.88
2022-11-12T13:40:12.660Z,12.68
2022-11-12T13:41:53.696Z,10.98
2022-11-12T13:43:41.005Z,13.00
2022-11-12T13:45:03.605Z,8.55
2022-11-12T13:46:29.383Z,11.30
2022-11-12T13:47:53.258Z,12.18
2022-11-12T13:49:18.918Z,15.30
2022-11-12T13:50:42.205Z,20.27
2022-11-12T13:52:07.478Z,13.00
2022-11-12T13:53:33.075Z,11.98
2022-11-12T13:55:03.266Z,14.40
2022-11-12T13:56:30.162Z,9.82
2022-11-12T13:57:54.000Z,15.38
2022-11-12T13:59:18.651Z,17.60
2022-11-12T14:00:42.095Z,13.63
2022-11-12T14:02:05.311Z,15.10
2022-11-12T14:03:30.630Z,11.38
2022-11-12T14:04:55.955Z,13.10
2022-11-12T14:06:23.515Z,18.08
2022-11-12T14:07:55.616Z,13.07
2022-11-12T14:09:49.383Z,10.43
2022-11-12T14:11:28.400Z,17.30
2022-11-12T14:13:10.757Z,16.90
2022-11-12T14:14:43.813Z,13.82
2022-11-12T14:16:28.487Z,10.38
2022-11-12T14:17:57.875Z,9.25
2022-11-12T14:19:56.633Z,15.48
2022-11-12T14:21:21.847Z,13.38
2022-11-12T14:22:46.258Z,11.10
2022-11-12T14:24:12.728Z,17.73
2022-11-12T14:25:36.144Z,14.55
2022-11-12T14:26:58.492Z,14.95
2022-11-12T14:28:30.516Z,13.05
2022-11-12T14:30:12.291Z,13.23
2022-11-12T14:31:35.698Z,17.27
2022-11-12T14:33:01.260Z,12.90
2022-11-12T14:34:28.556Z,16.67
2022-11-12T14:35:53.073Z,15.63
2022-11-12T14:37:35.559Z,14.20
2022-11-12T14:39:00.989Z,20.65
2022-11-12T14:40:24.971Z,14.00
2022-11-12T14:41:49.211Z,21.48
2022-11-12T14:43:27.139Z,15.90
2022-11-12T14:44:51.413Z,22.27
2022-11-12T14:46:24.064Z,20.67
2022-11-12T14:47:47.728Z,21.63
2022-11-12T14:49:19.186Z,23.70
2022-11-12T14:50:47.979Z,17.80
2022-11-12T14:52:16.690Z,18.08
2022-11-12T14:53:44.753Z,16.90
2022-11-12T14:55:13.546Z,16.25
2022-11-12T14:56:40.684Z,22.40
2022-11-12T14:58:03.799Z,21.75
2022-11-12T14:59:27.381Z,15.52
2022-11-12T15:00:52.782Z,20.98
2022-11-12T15:02:33.549Z,16.65
2022-11-12T15:04:19.274Z,15.68
2022-11-12T15:05:59.267Z,18.75
2022-11-12T15:07:27.480Z,20.58
2022-11-12T15:08:59.815Z,22.65
2022-11-12T15:10:34.901Z,19.65
2022-11-12T15:11:58.306Z,21.40
2022-11-12T15:13:23.134Z,22.98
2022-11-12T15:14:46.506Z,19.90
2022-11-12T15:16:10.765Z,15.68
2022-11-12T15:17:35.518Z,17.88
2022-11-12T15:19:08.118Z,17.50
2022-11-12T15:20:31.747Z,26.13
2022-11-12T15:21:56.810Z,21.27
2022-11-12T15:23:20.541Z,17.63
2022-11-12T15:24:46.066Z,18.00
2022-11-12T15:26:17.660Z,22.73
2022-11-12T15:27:42.317Z,18.98
2022-11-12T15:29:16.510Z,20.25
2022-11-12T15:30:39.980Z,23.83
2022-11-12T15:32:08.597Z,32.92
2022-11-12T15:33:34.386Z,23.08
2022-11-12T15:34:57.756Z,23.25
2022-11-12T15:36:23.696Z,24.30
2022-11-12T15:37:47.088Z,19.83
2022-11-12T15:39:14.019Z,25.17
2022-11-12T15:40:45.570Z,20.55
2022-11-12T15:42:17.117Z,21.80
2022-11-12T15:43:43.358Z,23.17
2022-11-12T15:45:14.585Z,15.20
2022-11-12T15:46:38.649Z,22.70
2022-11-12T15:48:02.032Z,29.85
2022-11-12T15:49:24.427Z,21.15
2022-11-12T15:50:48.172Z,24.13
2022-11-12T15:52:11.526Z,18.50
2022-11-12T15:53:34.865Z,21.60
2022-11-12T15:54:58.427Z,24.30
2022-11-12T15:56:23.161Z,19.30
2022-11-12T15:57:50.663Z,25.35
2022-11-12T15:59:16.984Z,26.08
2022-11-12T16:00:40.892Z,22.05
2022-11-12T16:02:04.271Z,17.00
2022-11-12T16:03:28.140Z,19.60
2022-11-12T16:04:50.614Z,22.55
2022-11-12T16:06:14.006Z,21.92
2022-11-12T16:07:37.353Z,23.00
2022-11-12T16:09:00.692Z,21.88
2022-11-12T16:10:24.107Z,25.52
2022-11-12T16:11:50.339Z,26.33
2022-11-12T16:13:16.481Z,27.48
2022-11-12T16:14:39.986Z,21.00
2022-11-12T16:16:04.905Z,24.15
2022-11-12T16:17:28.263Z,23.83
2022-11-12T16:18:51.614Z,22.30
2022-11-12T16:20:16.610Z,21.65
2022-11-12T16:21:40.020Z,25.02
2022-11-12T16:23:03.717Z,28.13
2022-11-12T16:24:27.062Z,26.17
2022-11-12T16:25:50.532Z,26.85
2022-11-12T16:27:16.124Z,27.88
2022-11-12T16:28:39.589Z,22.90
2022-11-12T16:30:02.918Z,31.65
2022-11-12T16:31:26.509Z,24.02
2022-11-12T16:32:50.297Z,24.83
2022-11-12T16:34:13.742Z,23.50
2022-11-12T16:35:37.434Z,28.75
2022-11-12T16:37:00.781Z,22.27
2022-11-12T16:38:25.724Z,35.33
2022-11-12T16:39:49.079Z,26.30
2022-11-12T16:41:13.354Z,28.20
2022-11-12T16:42:38.110Z,28.35
2022-11-12T16:44:00.477Z,29.70
2022-11-12T16:45:25.484Z,23.13
2022-11-12T16:46:48.923Z,28.27
2022-11-12T16:48:15.310Z,27.88
2022-11-12T16:49:39.129Z,32.97
2022-11-12T16:51:01.679Z,25.50
2022-11-12T16:52:25.852Z,25.42
2022-11-12T16:53:49.368Z,28.65
2022-11-12T16:55:12.780Z,22.25
2022-11-12T16:56:37.318Z,34.40
2022-11-12T16:58:02.061Z,27.52
2022-11-12T16:59:25.415Z,32.20
2022-11-12T17:00:50.984Z,23.83
2022-11-12T17:02:16.875Z,25.17
2022-11-12T17:03:40.210Z,34.22
2022-11-12T17:05:04.298Z,30.08
2022-11-12T17:06:34.361Z,28.45
2022-11-12T17:07:58.724Z,26.55
2022-11-12T17:09:22.067Z,33.33
2022-11-12T17:10:44.456Z,27.05
2022-11-12T17:12:08.041Z,28.33
2022-11-12T17:13:32.736Z,25.48
2022-11-12T17:14:56.110Z,29.95
2022-11-12T17:16:19.469Z,33.67
2022-11-12T17:17:42.829Z,29.70
2022-11-12T17:19:06.384Z,26.73
2022-11-12T17:20:29.776Z,25.52
2022-11-12T17:21:53.345Z,27.15
2022-11-12T17:23:16.737Z,30.00
2022-11-12T17:24:40.096Z,23.77
2022-11-12T17:26:04.637Z,30.58
2022-11-12T17:27:28.401Z,26.85
2022-11-12T17:28:59.362Z,30.17
2022-11-12T17:30:25.833Z,40.95
2022-11-12T17:31:50.097Z,33.55
2022-11-12T17:33:14.104Z,31.55
2022-11-12T17:34:37.594Z,26.55
2022-11-12T17:36:04.001Z,23.88
2022-11-12T17:37:27.336Z,25.88
2022-11-12T17:38:54.409Z,25.65
2022-11-12T17:40:17.972Z,28.02
2022-11-12T17:41:41.545Z,31.80
2022-11-12T17:43:04.941Z,34.10
2022-11-12T17:44:29.745Z,26.02
2022-11-12T17:45:53.203Z,30.92
2022-11-12T17:47:16.619Z,27.80
2022-11-12T17:48:40.672Z,28.33
2022-11-12T17:50:04.367Z,28.23
2022-11-12T17:51:29.450Z,23.17
2022-11-12T17:52:52.796Z,26.17
2022-11-12T17:54:16.173Z,24.77
2022-11-12T17:55:39.558Z,31.73
2022-11-12T17:57:02.959Z,25.77
2022-11-12T17:58:26.688Z,29.42
2022-11-12T17:59:51.366Z,34.15
2022-11-12T18:01:16.359Z,25.55
2022-11-12T18:02:39.758Z,23.20
2022-11-12T18:04:03.128Z,32.22
2022-11-12T18:05:26.575Z,31.92
2022-11-12T18:06:49.959Z,27.13
2022-11-12T18:08:13.321Z,29.42
2022-11-12T18:09:36.665Z,28.15
2022-11-12T18:11:00.143Z,33.08
2022-11-12T18:12:23.532Z,32.95
2022-11-12T18:13:46.868Z,29.20
2022-11-12T18:15:12.866Z,25.33
2022-11-12T18:16:36.665Z,30.63
2022-11-12T18:18:00.042Z,29.10
2022-11-12T18:19:23.425Z,25.88
2022-11-12T18:20:46.965Z,27.85
2022-11-12T18:22:12.855Z,24.63
2022-11-12T18:23:38.147Z,28.70
2022-11-12T18:25:01.499Z,27.98
2022-11-12T18:26:24.993Z,25.95
2022-11-12T18:27:48.456Z,21.98
2022-11-12T18:29:12.492Z,31.70
2022-11-12T18:30:37.754Z,22.88
2022-11-12T18:32:01.182Z,35.03
2022-11-12T18:33:24.766Z,38.72
2022-11-12T18:34:48.775Z,33.30
2022-11-12T18:36:14.083Z,33.67
2022-11-12T18:37:37.408Z,35.42
2022-11-12T18:39:00.748Z,32.70
2022-11-12T18:40:24.850Z,32.28
2022-11-12T18:41:48.263Z,33.67
2022-11-12T18:43:12.079Z,25.73
2022-11-12T18:44:35.420Z,37.08
2022-11-12T18:46:01.314Z,31.13
2022-11-12T18:47:24.668Z,37.28
2022-11-12T18:48:48.413Z,33.95
2022-11-12T18:50:11.798Z,27.33
2022-11-12T18:51:35.270Z,32.55
2022-11-12T18:52:58.599Z,30.65
2022-11-12T18:54:24.325Z,27.42